createdAt,value
2023-05-05T00:00:16.728Z,17.06
2023-05-05T00:01:16.760Z,15.42
2023-05-05T00:02:16.782Z,14.02
2023-05-05T00:03:16.803Z,14.07
2023-05-05T00:04:16.797Z,13.13
2023-05-05T00:05:16.727Z,11.94
2023-05-05T00:06:16.721Z,11.48
2023-05-05T00:07:16.724Z,11.75
2023-05-05T00:08:16.734Z,12.14
2023-05-05T00:09:16.718Z,11.38
2023-05-05T00:10:16.692Z,9.94
2023-05-05T00:11:16.731Z,9.39
2023-05-05T00:12:16.747Z,9.25
2023-05-05T00:13:16.727Z,9.60
2023-05-05T00:14:16.701Z,10.29
2023-05-05T00:15:16.722Z,10.79
2023-05-05T00:16:16.760Z,10.93
2023-05-05T00:17:16.803Z,10.96
2023-05-05T00:18:16.703Z,11.18
2023-05-05T00:19:16.731Z,11.47
2023-05-05T00:20:16.732Z,11.85
2023-05-05T00:21:16.740Z,12.10
2023-05-05T00:22:16.858Z,12.49
2023-05-05T00:23:16.736Z,12.87
2023-05-05T00:24:16.731Z,12.95
2023-05-05T00:25:16.763Z,13.39
2023-05-05T00:26:16.783Z,13.74
2023-05-05T00:27:16.806Z,13.84
2023-05-05T00:28:16.833Z,13.63
2023-05-05T00:29:16.836Z,13.30
2023-05-05T00:30:16.826Z,13.66
2023-05-05T00:31:16.903Z,14.14
2023-05-05T00:32:16.906Z,14.59
2023-05-05T00:33:16.928Z,14.66
2023-05-05T00:34:16.940Z,15.41
2023-05-05T00:35:16.992Z,15.32
2023-05-05T00:36:17.022Z,15.85
2023-05-05T00:37:17.075Z,15.80
2023-05-05T00:38:17.086Z,15.65
2023-05-05T00:39:17.124Z,14.54
2023-05-05T00:40:17.175Z,13.27
2023-05-05T00:41:17.176Z,13.18
2023-05-05T00:42:17.177Z,13.06
2023-05-05T00:43:17.188Z,12.64
2023-05-05T00:44:17.205Z,12.85
2023-05-05T00:45:17.156Z,13.14
2023-05-05T00:46:17.192Z,12.93
2023-05-05T00:47:17.202Z,13.21
2023-05-05T00:48:17.210Z,13.57
2023-05-05T00:49:17.241Z,13.37
2023-05-05T00:50:17.185Z,13.74
2023-05-05T00:51:17.212Z,14.14
2023-05-05T00:52:17.238Z,13.90
2023-05-05T00:53:17.225Z,13.24
2023-05-05T00:54:17.190Z,13.46
2023-05-05T00:55:17.208Z,13.83
2023-05-05T00:56:17.226Z,14.52
2023-05-05T00:57:17.207Z,13.61
2023-05-05T00:58:17.203Z,13.93
2023-05-05T00:59:17.212Z,14.29
2023-05-05T01:00:17.175Z,14.72
2023-05-05T01:01:17.251Z,15.46
2023-05-05T01:02:17.183Z,15.87
2023-05-05T01:03:17.322Z,16.32
2023-05-05T01:04:17.201Z,16.04
2023-05-05T01:05:17.180Z,16.90
2023-05-05T01:06:17.180Z,17.18
2023-05-05T01:07:17.163Z,17.53
2023-05-05T01:08:17.147Z,18.19
2023-05-05T01:09:17.178Z,18.52
2023-05-05T01:10:20.306Z,17.02
2023-05-05T01:11:17.192Z,16.37
2023-05-05T01:12:17.182Z,14.66
2023-05-05T01:13:17.198Z,14.23
2023-05-05T01:14:17.175Z,13.97
2023-05-05T01:15:17.150Z,13.21
2023-05-05T01:16:17.176Z,12.75
2023-05-05T01:17:17.124Z,12.62
2023-05-05T01:18:17.110Z,12.22
2023-05-05T01:19:17.137Z,12.24
2023-05-05T01:20:17.102Z,12.42
2023-05-05T01:21:17.119Z,12.58
2023-05-05T01:22:17.104Z,12.68
2023-05-05T01:23:17.119Z,12.30
2023-05-05T01:24:17.109Z,12.10
2023-05-05T01:25:17.082Z,12.28
2023-05-05T01:26:17.082Z,12.66
2023-05-05T01:27:17.053Z,13.00
2023-05-05T01:28:17.071Z,13.08
2023-05-05T01:29:17.115Z,13.18
2023-05-05T01:30:17.047Z,13.03
2023-05-05T01:31:17.120Z,13.13
2023-05-05T01:32:17.035Z,13.77
2023-05-05T01:33:17.047Z,14.19
2023-05-05T01:34:17.026Z,14.69
2023-05-05T01:35:16.992Z,14.31
2023-05-05T01:36:17.007Z,14.48
2023-05-05T01:37:16.989Z,15.13
2023-05-05T01:38:17.002Z,15.68
2023-05-05T01:39:17.025Z,15.76
2023-05-05T01:40:16.992Z,15.89
2023-05-05T01:41:16.991Z,16.40
2023-05-05T01:42:16.962Z,16.60
2023-05-05T01:43:16.981Z,16.31
2023-05-05T01:44:16.956Z,16.59
2023-05-05T01:45:16.942Z,16.74
2023-05-05T01:46:16.985Z,16.97
2023-05-05T01:47:17.011Z,17.27
2023-05-05T01:48:16.898Z,17.08
2023-05-05T01:49:16.927Z,17.50
2023-05-05T01:50:16.922Z,17.49
2023-05-05T01:51:17.030Z,17.29
2023-05-05T01:52:17.547Z,17.28
2023-05-05T01:53:16.894Z,17.81
2023-05-05T01:54:16.896Z,18.02
2023-05-05T01:55:16.897Z,17.90
2023-05-05T01:56:16.877Z,18.51
2023-05-05T01:57:16.851Z,18.43
2023-05-05T01:58:16.846Z,17.85
2023-05-05T01:59:16.865Z,18.25
2023-05-05T02:00:16.815Z,18.32
2023-05-05T02:01:16.880Z,18.01
2023-05-05T02:02:16.824Z,18.07
2023-05-05T02:03:16.945Z,18.97
2023-05-05T02:04:16.816Z,18.91
2023-05-05T02:05:16.823Z,19.24
2023-05-05T02:06:16.812Z,19.57
2023-05-05T02:07:16.798Z,19.70
2023-05-05T02:08:16.806Z,20.21
2023-05-05T02:09:16.811Z,20.43
2023-05-05T02:10:16.779Z,21.00
2023-05-05T02:11:16.798Z,20.97
2023-05-05T02:12:16.750Z,20.22
2023-05-05T02:13:16.935Z,19.23
2023-05-05T02:14:16.767Z,18.77
2023-05-05T02:15:16.761Z,19.07
2023-05-05T02:16:16.911Z,19.18
2023-05-05T02:17:16.720Z,19.64
2023-05-05T02:18:16.699Z,20.17
2023-05-05T02:19:16.735Z,20.56
2023-05-05T02:20:16.746Z,20.73
2023-05-05T02:21:16.710Z,21.09
2023-05-05T02:22:16.708Z,20.69
2023-05-05T02:23:16.684Z,20.52
2023-05-05T02:24:16.707Z,20.50
2023-05-05T02:25:16.660Z,20.65
2023-05-05T02:26:16.685Z,20.90
2023-05-05T02:27:16.646Z,20.61
2023-05-05T02:28:16.645Z,20.87
2023-05-05T02:29:16.662Z,21.17
2023-05-05T02:30:16.670Z,21.48
2023-05-05T02:31:16.688Z,21.93
2023-05-05T02:32:16.631Z,22.14
2023-05-05T02:33:16.623Z,22.58
2023-05-05T02:34:16.626Z,23.03
2023-05-05T02:35:16.611Z,23.15
2023-05-05T02:36:16.606Z,22.74
2023-05-05T02:37:16.587Z,22.60
2023-05-05T02:38:16.570Z,22.39
2023-05-05T02:39:16.590Z,22.45
2023-05-05T02:40:16.595Z,21.43
2023-05-05T02:41:16.753Z,21.49
2023-05-05T02:42:16.567Z,21.64
2023-05-05T02:43:16.595Z,20.88
2023-05-05T02:44:16.546Z,20.33
2023-05-05T02:45:16.526Z,20.27
2023-05-05T02:46:16.605Z,19.97
2023-05-05T02:47:16.518Z,19.49
2023-05-05T02:48:16.523Z,18.81
2023-05-05T02:49:16.529Z,18.40
2023-05-05T02:50:16.494Z,17.89
2023-05-05T02:51:16.486Z,17.73
2023-05-05T02:52:16.472Z,17.25
2023-05-05T02:53:16.462Z,17.74
2023-05-05T02:54:16.489Z,18.10
2023-05-05T02:55:16.464Z,18.57
2023-05-05T02:56:16.442Z,18.67
2023-05-05T02:57:16.432Z,18.83
2023-05-05T02:58:16.448Z,19.20
2023-05-05T02:59:16.615Z,19.23
2023-05-05T03:00:16.417Z,19.37
2023-05-05T03:01:16.425Z,19.43
2023-05-05T03:02:16.403Z,18.90
2023-05-05T03:03:16.519Z,18.76
2023-05-05T03:04:16.397Z,18.67
2023-05-05T03:05:16.367Z,18.97
2023-05-05T03:06:16.553Z,18.87
2023-05-05T03:07:16.386Z,18.82
2023-05-05T03:08:16.345Z,18.64
2023-05-05T03:09:16.353Z,18.70
2023-05-05T03:10:16.341Z,18.56
2023-05-05T03:11:16.373Z,18.53
2023-05-05T03:12:16.398Z,19.12
2023-05-05T03:13:16.331Z,19.27
2023-05-05T03:14:16.342Z,19.98
2023-05-05T03:15:16.306Z,20.71
2023-05-05T03:16:16.340Z,21.05
2023-05-05T03:17:16.295Z,21.81
2023-05-05T03:18:16.295Z,22.41
2023-05-05T03:19:16.411Z,23.13
2023-05-05T03:20:16.297Z,24.08
2023-05-05T03:21:16.284Z,25.16
2023-05-05T03:22:16.278Z,25.68
2023-05-05T03:23:16.276Z,25.46
2023-05-05T03:24:16.236Z,25.16
2023-05-05T03:25:16.351Z,24.18
2023-05-05T03:26:16.260Z,24.04
2023-05-05T03:27:16.239Z,24.87
2023-05-05T03:28:16.257Z,25.58
2023-05-05T03:29:16.235Z,24.03
2023-05-05T03:30:16.210Z,23.28
2023-05-05T03:31:16.199Z,23.30
2023-05-05T03:32:16.181Z,22.77
2023-05-05T03:33:16.308Z,22.00
2023-05-05T03:34:16.287Z,21.95
2023-05-05T03:35:16.326Z,22.08
2023-05-05T03:36:16.389Z,21.95
2023-05-05T03:37:16.433Z,22.82
2023-05-05T03:38:16.471Z,23.15
2023-05-05T03:39:16.492Z,24.40
2023-05-05T03:40:16.576Z,25.37
2023-05-05T03:41:16.596Z,25.15
2023-05-05T03:42:16.656Z,24.35
2023-05-05T03:43:16.710Z,24.00
2023-05-05T03:44:16.731Z,23.24
2023-05-05T03:45:16.781Z,21.51
2023-05-05T03:46:16.821Z,20.64
2023-05-05T03:47:16.857Z,21.11
2023-05-05T03:48:16.841Z,20.80
2023-05-05T03:49:16.867Z,21.42
2023-05-05T03:50:16.879Z,20.75
2023-05-05T03:51:16.873Z,20.51
2023-05-05T03:52:16.887Z,21.16
2023-05-05T03:53:16.885Z,20.91
2023-05-05T03:54:16.886Z,20.44
2023-05-05T03:55:16.859Z,20.03
2023-05-05T03:56:16.898Z,19.16
2023-05-05T03:57:16.892Z,18.97
2023-05-05T03:58:16.902Z,18.72
2023-05-05T03:59:16.866Z,19.01
2023-05-05T04:00:16.877Z,19.39
2023-05-05T04:01:16.905Z,19.61
2023-05-05T04:02:18.575Z,20.16
2023-05-05T04:03:17.111Z,20.70
2023-05-05T04:04:16.966Z,21.04
2023-05-05T04:05:16.876Z,20.83
2023-05-05T04:06:16.882Z,20.05
2023-05-05T04:07:16.881Z,18.90
2023-05-05T04:08:16.926Z,18.77
2023-05-05T04:09:16.925Z,19.14
2023-05-05T04:10:16.914Z,19.07
2023-05-05T04:11:16.930Z,19.17
2023-05-05T04:12:16.989Z,18.91
2023-05-05T04:13:17.131Z,18.25
2023-05-05T04:14:17.024Z,17.50
2023-05-05T04:15:16.989Z,17.86
2023-05-05T04:16:17.013Z,17.26
2023-05-05T04:17:16.994Z,17.05
2023-05-05T04:18:16.966Z,17.66
2023-05-05T04:19:17.046Z,17.78
2023-05-05T04:20:17.003Z,18.23
2023-05-05T04:21:17.077Z,19.14
2023-05-05T04:22:17.083Z,19.85
2023-05-05T04:23:17.142Z,20.73
2023-05-05T04:24:17.142Z,21.43
2023-05-05T04:25:17.197Z,21.62
2023-05-05T04:26:17.267Z,22.21
2023-05-05T04:27:17.330Z,22.84
2023-05-05T04:28:18.227Z,23.18
2023-05-05T04:29:17.416Z,22.92
2023-05-05T04:30:17.461Z,22.33
2023-05-05T04:31:17.510Z,22.73
2023-05-05T04:32:17.591Z,21.65
2023-05-05T04:33:17.628Z,22.37
2023-05-05T04:34:17.720Z,22.79
2023-05-05T04:35:17.839Z,22.73
2023-05-05T04:36:17.845Z,22.70
2023-05-05T04:37:17.909Z,23.05
2023-05-05T04:38:17.997Z,23.03
2023-05-05T04:39:18.017Z,23.74
2023-05-05T04:40:18.117Z,23.99
2023-05-05T04:41:18.130Z,24.09
2023-05-05T04:42:18.223Z,23.41
2023-05-05T04:43:18.261Z,23.75
2023-05-05T04:44:18.327Z,23.54
2023-05-05T04:45:18.403Z,23.18
2023-05-05T04:46:18.502Z,23.47
2023-05-05T04:47:18.516Z,23.61
2023-05-05T04:48:18.599Z,23.26
2023-05-05T04:49:18.641Z,24.11
2023-05-05T04:50:18.725Z,23.84
2023-05-05T04:51:18.745Z,24.05
2023-05-05T04:52:18.817Z,23.81
2023-05-05T04:53:18.876Z,23.35
2023-05-05T04:54:18.961Z,23.88
2023-05-05T04:55:19.006Z,23.47
2023-05-05T04:56:19.072Z,23.74
2023-05-05T04:57:19.146Z,24.12
2023-05-05T04:58:19.182Z,24.76
2023-05-05T04:59:19.270Z,23.77
2023-05-05T05:00:19.289Z,25.19
2023-05-05T05:01:26.432Z,24.91
2023-05-05T05:02:19.440Z,24.98
2023-05-05T05:03:19.453Z,25.00
2023-05-05T05:04:19.338Z,25.01
2023-05-05T05:05:19.366Z,23.57
2023-05-05T05:06:19.352Z,22.94
2023-05-05T05:07:19.351Z,22.66
2023-05-05T05:08:19.345Z,22.78
2023-05-05T05:09:19.332Z,22.54
2023-05-05T05:10:19.317Z,21.93
2023-05-05T05:11:19.321Z,21.92
2023-05-05T05:12:19.288Z,22.20
2023-05-05T05:13:19.385Z,22.08
2023-05-05T05:14:19.309Z,22.06
2023-05-05T05:15:19.281Z,22.18
2023-05-05T05:16:19.295Z,22.44
2023-05-05T05:17:19.283Z,21.83
2023-05-05T05:18:19.275Z,21.18
2023-05-05T05:19:19.276Z,21.52
2023-05-05T05:20:19.261Z,21.61
2023-05-05T05:21:19.246Z,21.46
2023-05-05T05:22:19.337Z,21.38
2023-05-05T05:23:19.239Z,21.73
2023-05-05T05:24:19.248Z,21.30
2023-05-05T05:25:19.210Z,21.37
2023-05-05T05:26:19.215Z,21.63
2023-05-05T05:27:19.195Z,22.10
2023-05-05T05:28:19.218Z,21.67
2023-05-05T05:29:19.201Z,21.69
2023-05-05T05:30:19.159Z,21.64
2023-05-05T05:31:19.208Z,21.58
2023-05-05T05:32:19.640Z,22.07
2023-05-05T05:33:19.164Z,22.16
2023-05-05T05:34:19.153Z,24.75
2023-05-05T05:35:19.182Z,26.48
2023-05-05T05:36:19.190Z,32.26
2023-05-05T05:37:20.212Z,34.65
2023-05-05T05:38:19.180Z,38.49
2023-05-05T05:39:19.117Z,42.35
2023-05-05T05:40:19.167Z,47.05
2023-05-05T05:41:19.194Z,52.00
2023-05-05T05:42:19.169Z,49.76
2023-05-05T05:43:19.091Z,50.26
2023-05-05T05:44:19.115Z,50.61
2023-05-05T05:45:26.040Z,52.53
2023-05-05T05:46:19.731Z,53.39
2023-05-05T05:47:19.169Z,54.99
2023-05-05T05:48:19.075Z,56.60
2023-05-05T05:49:19.052Z,59.24
2023-05-05T05:50:19.064Z,58.68
2023-05-05T05:51:19.077Z,55.30
2023-05-05T05:52:19.150Z,54.76
2023-05-05T05:53:19.039Z,54.56
2023-05-05T05:54:19.013Z,56.08
2023-05-05T05:55:19.032Z,57.45
2023-05-05T05:56:18.986Z,59.92
2023-05-05T05:57:19.033Z,60.23
2023-05-05T05:58:18.969Z,60.79
2023-05-05T05:59:18.968Z,60.92
2023-05-05T06:00:18.952Z,63.28
2023-05-05T06:01:18.999Z,64.36
2023-05-05T06:02:18.972Z,60.68
2023-05-05T06:03:19.122Z,59.70
2023-05-05T06:04:18.982Z,59.66
2023-05-05T06:05:18.955Z,61.54
2023-05-05T06:06:18.928Z,64.21
2023-05-05T06:07:18.926Z,63.72
2023-05-05T06:08:18.938Z,63.34
2023-05-05T06:09:18.911Z,61.49
2023-05-05T06:10:28.056Z,64.15
2023-05-05T06:11:19.932Z,61.97
2023-05-05T06:12:18.927Z,59.16
2023-05-05T06:13:18.904Z,59.93
2023-05-05T06:14:20.104Z,53.76
2023-05-05T06:15:18.863Z,50.21
2023-05-05T06:16:18.912Z,47.58
2023-05-05T06:17:18.853Z,44.72
2023-05-05T06:18:18.923Z,45.59
2023-05-05T06:19:18.844Z,44.21
2023-05-05T06:20:18.920Z,41.78
2023-05-05T06:21:18.893Z,39.13
2023-05-05T06:22:18.927Z,40.22
2023-05-05T06:23:18.986Z,39.69
2023-05-05T06:24:19.044Z,37.16
2023-05-05T06:25:19.131Z,35.12
2023-05-05T06:26:19.193Z,34.13
2023-05-05T06:27:19.251Z,35.02
2023-05-05T06:28:19.668Z,35.48
2023-05-05T06:29:19.395Z,35.15
2023-05-05T06:30:19.430Z,32.84
2023-05-05T06:31:19.568Z,33.79
2023-05-05T06:32:19.576Z,34.47
2023-05-05T06:33:19.624Z,35.32
2023-05-05T06:34:19.704Z,35.95
2023-05-05T06:35:19.736Z,36.40
2023-05-05T06:36:19.854Z,36.30
2023-05-05T06:37:19.897Z,35.46
2023-05-05T06:38:19.925Z,32.22
2023-05-05T06:39:20.019Z,30.13
2023-05-05T06:40:20.033Z,26.45
2023-05-05T06:41:20.137Z,25.31
2023-05-05T06:42:20.155Z,23.80
2023-05-05T06:43:20.256Z,22.41
2023-05-05T06:44:20.288Z,22.73
2023-05-05T06:45:20.345Z,21.59
2023-05-05T06:46:20.581Z,21.41
2023-05-05T06:47:20.489Z,21.45
2023-05-05T06:48:20.725Z,20.18
2023-05-05T06:49:20.616Z,18.89
2023-05-05T06:50:20.706Z,17.63
2023-05-05T06:51:20.710Z,16.23
2023-05-05T06:52:20.780Z,15.80
2023-05-05T06:53:21.217Z,15.02
2023-05-05T06:54:20.924Z,14.71
2023-05-05T06:55:20.963Z,14.15
2023-05-05T06:56:21.048Z,13.16
2023-05-05T06:57:21.098Z,12.23
2023-05-05T06:58:21.261Z,10.70
2023-05-05T06:59:21.196Z,10.40
2023-05-05T07:00:21.277Z,10.28
2023-05-05T07:01:21.314Z,9.01
2023-05-05T07:02:21.333Z,8.09
2023-05-05T07:03:21.447Z,7.71
2023-05-05T07:04:21.427Z,7.40
2023-05-05T07:05:21.463Z,7.48
2023-05-05T07:06:21.553Z,6.95
2023-05-05T07:07:21.570Z,6.26
2023-05-05T07:08:21.592Z,5.70
2023-05-05T07:09:21.682Z,5.63
2023-05-05T07:10:21.702Z,5.03
2023-05-05T07:11:21.702Z,4.78
2023-05-05T07:12:21.764Z,4.66
2023-05-05T07:13:21.771Z,4.26
2023-05-05T07:14:24.260Z,3.80
2023-05-05T07:15:28.750Z,3.42
2023-05-05T07:16:22.869Z,3.39
2023-05-05T07:17:21.790Z,3.15
2023-05-05T07:18:21.821Z,3.22
2023-05-05T07:19:21.750Z,2.94
2023-05-05T07:20:21.771Z,2.87
2023-05-05T07:21:21.763Z,2.74
2023-05-05T07:22:21.725Z,2.64
2023-05-05T07:23:21.728Z,2.47
2023-05-05T07:24:21.788Z,2.13
2023-05-05T07:25:21.731Z,2.02
2023-05-05T07:26:21.768Z,1.90
2023-05-05T07:27:21.752Z,1.97
2023-05-05T07:28:21.692Z,2.52
2023-05-05T07:29:21.712Z,3.43
2023-05-05T07:30:22.069Z,5.30
2023-05-05T07:31:21.740Z,6.88
2023-05-05T07:32:21.802Z,8.15
2023-05-05T07:33:21.759Z,11.48
2023-05-05T07:34:21.756Z,14.07
2023-05-05T07:35:21.832Z,18.27
2023-05-05T07:36:21.876Z,15.85
2023-05-05T07:37:21.973Z,16.95
2023-05-05T07:38:22.025Z,14.82
2023-05-05T07:39:25.695Z,13.27
2023-05-05T07:40:22.075Z,14.64
2023-05-05T07:41:22.062Z,17.91
2023-05-05T07:42:22.080Z,22.23
2023-05-05T07:43:22.062Z,24.93
2023-05-05T07:44:22.042Z,22.50
2023-05-05T07:45:22.034Z,18.68
2023-05-05T07:46:22.117Z,17.00
2023-05-05T07:47:22.089Z,17.63
2023-05-05T07:48:22.042Z,16.68
2023-05-05T07:49:21.997Z,17.60
2023-05-05T07:50:22.029Z,16.30
2023-05-05T07:51:21.969Z,15.22
2023-05-05T07:52:33.118Z,13.55
2023-05-05T07:53:22.989Z,13.55
2023-05-05T07:54:21.995Z,12.72
2023-05-05T07:55:21.956Z,12.11
2023-05-05T07:56:21.988Z,10.64
2023-05-05T07:57:22.685Z,9.77
2023-05-05T07:58:21.933Z,8.74
2023-05-05T07:59:21.922Z,7.96
2023-05-05T08:00:21.930Z,6.80
2023-05-05T08:01:21.919Z,6.97
2023-05-05T08:02:22.128Z,5.17
2023-05-05T08:03:22.031Z,4.15
2023-05-05T08:04:21.968Z,2.97
2023-05-05T08:05:21.930Z,2.67
2023-05-05T08:06:21.883Z,2.33
2023-05-05T08:07:21.945Z,1.85
2023-05-05T08:08:21.993Z,1.57
2023-05-05T08:09:22.043Z,1.41
2023-05-05T08:10:22.140Z,1.32
2023-05-05T08:11:22.209Z,1.35
2023-05-05T08:12:22.228Z,1.21
2023-05-05T08:13:22.316Z,1.40
2023-05-05T08:14:22.390Z,1.35
2023-05-05T08:15:22.492Z,1.32
2023-05-05T08:16:22.565Z,1.13
2023-05-05T08:17:22.618Z,0.92
2023-05-05T08:18:22.727Z,0.95
2023-05-05T08:19:29.373Z,0.84
2023-05-05T08:20:23.710Z,0.79
2023-05-05T08:21:22.666Z,0.71
2023-05-05T08:22:22.696Z,0.59
2023-05-05T08:23:22.673Z,0.53
2023-05-05T08:24:22.753Z,0.46
2023-05-05T08:25:22.661Z,0.49
2023-05-05T08:26:22.620Z,0.50
2023-05-05T08:27:23.256Z,0.50
2023-05-05T08:28:22.637Z,0.50
2023-05-05T08:29:22.604Z,0.50
2023-05-05T08:30:22.598Z,0.51
2023-05-05T08:31:22.753Z,0.52
2023-05-05T08:32:22.579Z,0.50
2023-05-05T08:33:22.732Z,0.50
2023-05-05T08:34:22.789Z,0.49
2023-05-05T08:35:22.581Z,0.52
2023-05-05T08:36:22.594Z,0.52
2023-05-05T08:37:22.686Z,0.54
2023-05-05T08:38:22.563Z,0.50
2023-05-05T08:39:22.568Z,0.50
2023-05-05T08:40:22.725Z,0.50
2023-05-05T08:41:22.542Z,0.50
2023-05-05T08:42:36.157Z,0.52
2023-05-05T08:43:23.542Z,0.51
2023-05-05T08:44:22.553Z,0.52
2023-05-05T08:45:22.545Z,0.49
2023-05-05T08:46:22.652Z,0.48
2023-05-05T08:47:22.540Z,0.45
2023-05-05T08:48:22.772Z,0.52
2023-05-05T08:49:22.544Z,0.57
2023-05-05T08:50:22.677Z,0.58
2023-05-05T08:51:22.531Z,0.61
2023-05-05T08:52:22.691Z,0.77
2023-05-05T08:53:22.719Z,1.25
2023-05-05T08:54:22.719Z,2.30
2023-05-05T08:55:22.782Z,8.77
2023-05-05T08:56:22.818Z,11.87
2023-05-05T08:57:22.896Z,15.09
2023-05-05T08:58:59.678Z,0.50
2023-05-05T08:59:59.682Z,0.50
2023-05-05T09:00:59.663Z,0.50
2023-05-05T09:01:59.653Z,0.50
2023-05-05T09:03:00.030Z,0.50
2023-05-05T09:03:59.634Z,0.58
2023-05-05T09:04:59.639Z,0.60
2023-05-05T09:05:59.604Z,0.53
2023-05-05T09:06:59.647Z,0.50
2023-05-05T09:07:59.892Z,0.47
2023-05-05T09:08:59.753Z,0.49
2023-05-05T09:09:59.601Z,0.46
2023-05-05T09:10:59.563Z,0.45
2023-05-05T09:11:59.576Z,0.45
2023-05-05T09:12:59.695Z,0.54
2023-05-05T09:13:59.561Z,0.50
2023-05-05T09:14:59.594Z,0.51
2023-05-05T09:16:00.410Z,0.49
2023-05-05T09:16:59.615Z,0.46
2023-05-05T09:17:59.566Z,0.38
2023-05-05T09:18:59.526Z,0.47
2023-05-05T09:19:59.557Z,0.47
2023-05-05T09:20:59.744Z,0.69
2023-05-05T09:21:59.724Z,0.69
2023-05-05T09:22:59.544Z,0.75
2023-05-05T09:24:07.442Z,0.94
2023-05-05T09:25:00.485Z,0.95
2023-05-05T09:25:59.486Z,0.96
2023-05-05T09:26:59.482Z,0.95
2023-05-05T09:27:59.459Z,1.08
2023-05-05T09:28:59.486Z,1.01
2023-05-05T09:29:59.470Z,0.90
2023-05-05T09:30:59.523Z,0.73
2023-05-05T09:31:59.464Z,0.65
2023-05-05T09:32:59.571Z,0.78
2023-05-05T09:33:59.914Z,0.80
2023-05-05T09:34:59.453Z,1.01
2023-05-05T09:35:59.408Z,1.44
2023-05-05T09:36:59.415Z,1.52
2023-05-05T09:37:59.508Z,1.81
2023-05-05T09:38:59.436Z,2.05
2023-05-05T09:39:59.363Z,2.23
2023-05-05T09:40:59.360Z,2.38
2023-05-05T09:41:59.384Z,2.72
2023-05-05T09:42:59.360Z,2.77
2023-05-05T09:43:59.386Z,3.20
2023-05-05T09:44:59.993Z,3.30
2023-05-05T09:45:59.448Z,2.87
2023-05-05T09:46:59.493Z,3.54
2023-05-05T09:48:00.610Z,3.48
2023-05-05T09:48:59.883Z,3.48
2023-05-05T09:49:59.640Z,3.03
2023-05-05T09:50:59.716Z,2.15
2023-05-05T09:51:59.777Z,1.62
2023-05-05T09:52:59.818Z,1.78
2023-05-05T09:54:00.500Z,1.64
2023-05-05T09:54:59.943Z,1.71
2023-05-05T09:56:00.019Z,1.99
2023-05-05T09:57:00.163Z,2.55
2023-05-05T09:58:00.202Z,2.66
2023-05-05T09:59:00.525Z,3.55
2023-05-05T10:00:00.258Z,5.04
2023-05-05T10:01:00.396Z,6.27
2023-05-05T10:02:00.433Z,7.25
2023-05-05T10:03:00.432Z,8.08
2023-05-05T10:04:00.447Z,9.34
2023-05-05T10:05:02.282Z,10.18
2023-05-05T10:06:00.570Z,11.02
2023-05-05T10:07:00.616Z,11.40
2023-05-05T10:08:00.705Z,11.88
2023-05-05T10:09:00.739Z,11.49
2023-05-05T10:10:00.956Z,9.55
2023-05-05T10:11:00.913Z,8.51
2023-05-05T10:12:00.929Z,7.35
2023-05-05T10:13:00.951Z,6.67
2023-05-05T10:14:00.997Z,7.05
2023-05-05T10:15:00.997Z,6.40
2023-05-05T10:16:01.030Z,5.65
2023-05-05T10:17:01.065Z,5.78
2023-05-05T10:18:07.415Z,6.46
2023-05-05T10:19:02.055Z,6.41
2023-05-05T10:20:01.047Z,6.31
2023-05-05T10:21:01.073Z,6.18
2023-05-05T10:22:01.054Z,6.47
2023-05-05T10:23:01.030Z,6.87
2023-05-05T10:24:01.039Z,7.35
2023-05-05T10:25:01.004Z,6.33
2023-05-05T10:26:01.085Z,6.19
2023-05-05T10:27:01.003Z,4.79
2023-05-05T10:28:00.987Z,4.81
2023-05-05T10:29:00.993Z,4.42
2023-05-05T10:30:01.024Z,4.02
2023-05-05T10:31:00.971Z,4.30
2023-05-05T10:32:10.254Z,4.67
2023-05-05T10:33:18.217Z,4.67
2023-05-05T10:34:02.078Z,4.67
2023-05-05T10:35:00.938Z,4.71
2023-05-05T10:36:00.970Z,4.81
2023-05-05T10:37:00.990Z,4.94
2023-05-05T10:38:00.936Z,5.35
2023-05-05T10:39:01.381Z,5.20
2023-05-05T10:40:00.924Z,4.84
2023-05-05T10:41:00.935Z,5.09
2023-05-05T10:42:00.961Z,4.48
2023-05-05T10:43:00.898Z,4.58
2023-05-05T10:44:04.330Z,4.52
2023-05-05T10:45:01.012Z,4.53
2023-05-05T10:46:01.040Z,4.55
2023-05-05T10:47:00.890Z,4.60
2023-05-05T10:48:00.910Z,4.54
2023-05-05T10:49:00.960Z,4.39
2023-05-05T10:50:00.848Z,4.12
2023-05-05T10:51:00.876Z,4.01
2023-05-05T10:52:00.868Z,4.51
2023-05-05T10:53:00.813Z,4.51
2023-05-05T10:54:00.919Z,3.94
2023-05-05T10:55:00.825Z,4.14
2023-05-05T10:56:00.827Z,4.08
2023-05-05T10:57:00.788Z,4.90
2023-05-05T10:58:00.817Z,4.42
2023-05-05T10:59:01.024Z,4.41
2023-05-05T11:00:00.809Z,5.30
2023-05-05T11:01:00.810Z,5.55
2023-05-05T11:02:00.770Z,4.49
2023-05-05T11:03:00.880Z,5.00
2023-05-05T11:04:00.815Z,5.35
2023-05-05T11:05:00.741Z,5.72
2023-05-05T11:06:00.757Z,5.20
2023-05-05T11:07:00.722Z,5.23
2023-05-05T11:08:00.737Z,4.66
2023-05-05T11:09:00.713Z,4.72
2023-05-05T11:10:00.728Z,4.37
2023-05-05T11:11:00.721Z,4.50
2023-05-05T11:12:00.693Z,4.60
2023-05-05T11:13:00.732Z,5.04
2023-05-05T11:14:00.707Z,4.74
2023-05-05T11:15:00.725Z,5.16
2023-05-05T11:16:00.694Z,5.04
2023-05-05T11:17:00.817Z,4.57
2023-05-05T11:18:01.889Z,3.54
2023-05-05T11:19:00.761Z,3.31
2023-05-05T11:20:00.780Z,3.32
2023-05-05T11:21:00.741Z,3.01
2023-05-05T11:22:00.716Z,2.95
2023-05-05T11:23:00.739Z,3.59
2023-05-05T11:24:00.705Z,3.93
2023-05-05T11:25:00.716Z,4.14
2023-05-05T11:26:00.704Z,4.12
2023-05-05T11:27:00.721Z,4.12
2023-05-05T11:28:00.695Z,4.18
2023-05-05T11:29:00.689Z,2.61
2023-05-05T11:30:00.981Z,2.81
2023-05-05T11:31:00.695Z,3.44
2023-05-05T11:32:00.688Z,3.82
2023-05-05T11:33:01.441Z,3.86
2023-05-05T11:34:00.747Z,3.07
2023-05-05T11:35:00.967Z,2.86
2023-05-05T11:36:01.765Z,2.98
2023-05-05T11:37:00.696Z,1.68
2023-05-05T11:38:00.664Z,1.20
2023-05-05T11:39:00.694Z,1.62
2023-05-05T11:40:00.683Z,1.99
2023-05-05T11:41:00.652Z,2.19
2023-05-05T11:42:03.836Z,2.18
2023-05-05T11:43:01.643Z,2.20
2023-05-05T11:44:00.662Z,2.27
2023-05-05T11:45:00.667Z,2.44
2023-05-05T11:46:00.726Z,2.77
2023-05-05T11:47:00.633Z,3.24
2023-05-05T11:48:00.758Z,3.06
2023-05-05T11:49:00.648Z,3.04
2023-05-05T11:50:00.943Z,2.65
2023-05-05T11:51:00.602Z,2.16
2023-05-05T11:52:00.605Z,2.11
2023-05-05T11:53:00.611Z,2.20
2023-05-05T11:54:00.577Z,2.65
2023-05-05T11:55:00.585Z,2.84
2023-05-05T11:56:00.569Z,3.05
2023-05-05T11:57:00.527Z,2.71
2023-05-05T11:58:00.559Z,2.41
2023-05-05T11:59:00.543Z,1.98
2023-05-05T12:00:00.640Z,1.92
2023-05-05T12:01:00.492Z,1.56
2023-05-05T12:02:00.524Z,1.04
2023-05-05T12:03:00.580Z,1.03
2023-05-05T12:04:00.634Z,1.43
2023-05-05T12:05:00.553Z,1.85
2023-05-05T12:06:00.481Z,1.98
2023-05-05T12:07:00.468Z,1.86
2023-05-05T12:08:00.514Z,1.76
2023-05-05T12:09:00.473Z,1.88
2023-05-05T12:10:00.494Z,1.94
2023-05-05T12:11:00.416Z,1.65
2023-05-05T12:12:00.457Z,1.05
2023-05-05T12:13:00.450Z,1.10
2023-05-05T12:14:00.411Z,1.02
2023-05-05T12:15:00.434Z,0.80
2023-05-05T12:16:00.452Z,0.76
2023-05-05T12:17:00.378Z,0.86
2023-05-05T12:18:02.799Z,0.98
2023-05-05T12:19:00.420Z,1.06
2023-05-05T12:20:00.371Z,1.16
2023-05-05T12:21:00.417Z,1.35
2023-05-05T12:22:00.365Z,1.40
2023-05-05T12:23:00.337Z,1.43
2023-05-05T12:24:00.375Z,1.38
2023-05-05T12:25:00.429Z,1.22
2023-05-05T12:26:00.330Z,1.15
2023-05-05T12:27:00.317Z,1.12
2023-05-05T12:28:00.356Z,1.03
2023-05-05T12:29:00.333Z,1.03
2023-05-05T12:30:00.280Z,0.99
2023-05-05T12:31:00.338Z,1.03
2023-05-05T12:32:00.393Z,1.02
2023-05-05T12:33:00.370Z,1.04
2023-05-05T12:34:00.452Z,1.05
2023-05-05T12:35:00.290Z,1.10
2023-05-05T12:36:00.272Z,1.00
2023-05-05T12:37:00.266Z,0.90
2023-05-05T12:38:00.271Z,0.92
2023-05-05T12:39:00.267Z,0.92
2023-05-05T12:40:00.236Z,0.94
2023-05-05T12:41:00.311Z,0.93
2023-05-05T12:42:00.233Z,0.80
2023-05-05T12:43:00.241Z,0.87
2023-05-05T12:44:00.218Z,0.86
2023-05-05T12:45:00.225Z,0.93
2023-05-05T12:46:00.260Z,0.92
2023-05-05T12:47:00.217Z,0.91
2023-05-05T12:48:00.206Z,0.78
2023-05-05T12:49:00.177Z,0.68
2023-05-05T12:50:00.339Z,0.74
2023-05-05T12:51:00.183Z,0.76
2023-05-05T12:52:00.150Z,0.76
2023-05-05T12:53:00.176Z,0.72
2023-05-05T12:54:00.126Z,0.61
2023-05-05T12:55:00.224Z,0.62
2023-05-05T12:56:00.153Z,0.56
2023-05-05T12:57:00.134Z,0.52
2023-05-05T12:58:00.149Z,0.54
2023-05-05T12:59:00.140Z,0.55
2023-05-05T13:00:00.104Z,0.63
2023-05-05T13:01:00.285Z,0.64
2023-05-05T13:02:00.176Z,0.64
2023-05-05T13:03:00.167Z,0.69
2023-05-05T13:04:00.062Z,0.67